Râmnicu Vâlcea, România

02:08 AM EEST on iulie 02, 2015 (GMT +0300)
Sibiu | | Change Station
CLOSE
Current Station
Aeroport
Location: Sibiu,
Elevation: 1453 ft
Nearby Weather Stations

Elev 1453 ft 45.79 °N, 24.09 °E | Updated 8 minutes ago

Clear
Cer senin
59 °F
Feels Like 59 °F
N
4
Vânt variabil Vânt from sud

astăzi
High -- | Low -- °F
--% Chance of Precip.
Ieri
High -- | Low -- °F
Precip. -- inch
5:39 AM 9:13 PM
Lună plină, 100% visible
Presiunea 30.21 inch
Vizibilitatea 6.2 mile
Nori
Punctul de rouă 55 °F
Umiditatea 88%
Precipitaţii 0.00 inch
Adâncimea zăpezii Not available.
UV Not available.
Pollen Not available.
Calitatea aerului Not available.
Flu Activity Not available.
METAR LRSB 012300Z AUTO 18003KT 9999 NCD 15/13 Q1023

More Conditions Fewer Conditions

Presiunea 30.21 inch
Vizibilitatea 6.2 mile
Nori
Punctul de rouă 55 °F
Umiditatea 88%
Precipitaţii 0.00 inch
Adâncimea zăpezii Not available.
UV Not available.
Pollen Not available.
Calitatea aerului Not available.
Flu Activity Not available.
METAR LRSB 012300Z AUTO 18003KT 9999 NCD 15/13 Q1023

More Conditions Fewer Conditions

10-Day Weather Forecast

×

Almanac

Astronomie

Jul. 02, 2015 Răsărit Apus
Timpul Actual
Crepusculul Civil
Crepusculul nautic
Răsărit Astronomic
Luna
Durata zilei lumină
Lungimea zilei
Tomorrow will be .
, % of the Moon is Illuminated

Extremele de azi

Country Highs Country Lows

Community

WunderPhotos

Upload Photos

1,834,335 photos uploaded!

WunderBlogs® & News

Nearby

Calitatea aerului

  Calitatea aerului Index de calitate a aerului Poluat
Not available.

Adâncimea zapezii

Station Depth Elevation

Earthquake Activity

Oraş Distance Mag. Time & Date
Minimum magnitude displayed is 2.5.

Coastal Water Temperatures

Locul Temperatura

Stations

Nearby Weather Stations

Locaţia staţiei Temp Vânt rece Punctul de rouă Umiditatea Vânt Precip. Elev Actualizare Type